createdAt,value
2022-09-17T00:00:10.081Z,3.35
2022-09-17T00:05:17.496Z,3.35
2022-09-17T00:10:20.477Z,3.92
2022-09-17T00:15:22.180Z,3.97
2022-09-17T00:20:27.463Z,3.65
2022-09-17T00:25:29.294Z,3.45
2022-09-17T00:30:34.274Z,2.70
2022-09-17T00:35:35.953Z,2.75
2022-09-17T00:40:42.708Z,3.75
2022-09-17T00:45:44.422Z,3.53
2022-09-17T00:50:48.537Z,3.25
2022-09-17T00:56:10.353Z,3.88
2022-09-17T01:01:16.923Z,3.78
2022-09-17T01:06:43.899Z,3.30
2022-09-17T01:12:03.873Z,3.28
2022-09-17T01:17:11.666Z,3.72
2022-09-17T01:22:24.985Z,4.32
2022-09-17T01:28:02.078Z,4.25
2022-09-17T01:33:10.102Z,4.20
2022-09-17T01:38:19.109Z,4.68
2022-09-17T01:43:26.216Z,4.03
2022-09-17T01:48:36.061Z,4.00
2022-09-17T01:53:58.821Z,2.95
2022-09-17T01:59:09.687Z,3.45
2022-09-17T02:04:23.447Z,3.83
2022-09-17T02:09:30.034Z,3.67
2022-09-17T02:14:38.992Z,3.80
2022-09-17T02:19:41.332Z,3.28
2022-09-17T02:24:50.133Z,3.45
2022-09-17T02:29:56.463Z,2.35
2022-09-17T02:35:06.431Z,2.67
2022-09-17T02:40:12.440Z,2.55
2022-09-17T02:45:35.846Z,2.92
2022-09-17T02:50:58.430Z,2.53
2022-09-17T02:56:38.090Z,2.47
2022-09-17T03:01:46.196Z,2.83
2022-09-17T03:06:48.180Z,3.20
2022-09-17T03:11:49.897Z,3.25
2022-09-17T03:16:53.882Z,2.90
2022-09-17T03:21:57.875Z,4.22
2022-09-17T03:27:01.722Z,2.40
2022-09-17T03:32:06.013Z,2.08
2022-09-17T03:37:12.830Z,2.10
2022-09-17T03:42:16.250Z,1.80
2022-09-17T03:47:20.155Z,2.95
2022-09-17T03:52:26.712Z,2.23
2022-09-17T03:57:35.772Z,2.28
2022-09-17T04:02:40.616Z,2.60
2022-09-17T04:07:44.853Z,2.55
2022-09-17T04:12:46.599Z,3.63
2022-09-17T04:17:51.353Z,2.88
2022-09-17T04:22:54.317Z,2.90
2022-09-17T04:27:58.254Z,3.42
2022-09-17T04:33:02.240Z,3.53
2022-09-17T04:38:03.901Z,4.00
2022-09-17T04:43:07.854Z,3.10
2022-09-17T04:48:09.604Z,2.60
2022-09-17T04:53:13.591Z,3.58
2022-09-17T04:58:17.625Z,3.30
2022-09-17T05:03:21.640Z,3.57
2022-09-17T05:08:28.868Z,3.30
2022-09-17T05:13:30.559Z,3.27
2022-09-17T05:18:32.266Z,3.27
2022-09-17T05:23:39.274Z,2.73
2022-09-17T05:28:43.244Z,3.15
2022-09-17T05:33:52.818Z,3.40
2022-09-17T05:38:55.006Z,3.38
2022-09-17T05:43:56.682Z,3.58
2022-09-17T05:49:03.554Z,3.50
2022-09-17T05:54:06.884Z,3.17
2022-09-17T05:59:15.873Z,2.60
2022-09-17T06:04:20.504Z,3.85
2022-09-17T06:09:28.560Z,3.30
2022-09-17T06:14:34.594Z,3.58
2022-09-17T06:19:40.880Z,3.10
2022-09-17T06:24:43.613Z,3.17
2022-09-17T06:29:47.454Z,3.95
2022-09-17T06:34:50.737Z,3.15
2022-09-17T06:39:54.898Z,3.08
2022-09-17T06:44:58.845Z,3.35
2022-09-17T06:50:06.244Z,3.28
2022-09-17T06:55:08.340Z,2.92
2022-09-17T07:00:16.608Z,2.70
2022-09-17T07:05:19.432Z,2.85
2022-09-17T07:10:24.970Z,2.20
2022-09-17T07:15:32.533Z,1.98
2022-09-17T07:20:36.765Z,1.92
2022-09-17T07:25:42.182Z,2.13
2022-09-17T07:30:56.281Z,1.70
2022-09-17T07:36:01.001Z,1.58
2022-09-17T07:41:12.923Z,2.13
2022-09-17T07:46:18.020Z,1.30
2022-09-17T07:51:29.415Z,1.83
2022-09-17T07:56:31.749Z,1.83
2022-09-17T08:01:38.915Z,1.60
2022-09-17T08:06:48.436Z,1.52
2022-09-17T08:11:55.972Z,2.67
2022-09-17T08:16:58.837Z,1.77
2022-09-17T08:22:13.162Z,2.17
2022-09-17T08:27:15.030Z,2.45
2022-09-17T08:32:21.895Z,1.80
2022-09-17T08:37:30.912Z,1.52
2022-09-17T08:42:40.096Z,1.10
2022-09-17T08:47:43.529Z,1.20
2022-09-17T08:53:24.230Z,0.97
2022-09-17T08:58:43.411Z,0.95
2022-09-17T09:04:19.586Z,1.23
2022-09-17T09:09:26.848Z,2.33
2022-09-17T09:14:43.300Z,2.07
2022-09-17T09:19:47.570Z,2.30
2022-09-17T09:25:02.605Z,1.90
2022-09-17T09:30:14.342Z,2.77
2022-09-17T09:35:23.636Z,2.97
2022-09-17T09:40:45.258Z,2.85
2022-09-17T09:46:09.374Z,3.40
2022-09-17T09:51:45.584Z,1.80
2022-09-17T09:56:55.847Z,1.20
2022-09-17T10:01:58.188Z,1.13
2022-09-17T10:07:09.999Z,1.80
2022-09-17T10:12:14.172Z,1.27
2022-09-17T10:17:27.396Z,1.65
2022-09-17T10:22:44.721Z,2.95
2022-09-17T10:27:52.835Z,2.72
2022-09-17T10:33:17.530Z,2.92
2022-09-17T10:38:36.684Z,2.50
2022-09-17T10:43:56.084Z,2.97
2022-09-17T10:49:42.502Z,4.85
2022-09-17T10:55:18.914Z,2.92
2022-09-17T11:00:26.711Z,5.43
2022-09-17T11:05:31.469Z,3.38
2022-09-17T11:10:51.351Z,2.53
2022-09-17T11:16:01.500Z,2.40
2022-09-17T11:21:27.497Z,2.90
2022-09-17T11:26:29.159Z,2.78
2022-09-17T11:31:39.441Z,2.53
2022-09-17T11:36:55.422Z,3.22
2022-09-17T11:41:59.146Z,1.95
2022-09-17T11:47:23.996Z,2.42
2022-09-17T11:52:39.544Z,3.13
2022-09-17T11:57:44.814Z,2.42
2022-09-17T12:02:51.730Z,3.08
2022-09-17T12:08:06.346Z,3.05
2022-09-17T12:13:28.172Z,3.88
2022-09-17T12:18:50.475Z,3.28
2022-09-17T12:24:26.436Z,4.05
2022-09-17T12:29:33.514Z,2.60
2022-09-17T12:35:02.857Z,2.20
2022-09-17T12:40:34.260Z,3.05
2022-09-17T12:45:36.529Z,2.00
2022-09-17T12:51:01.805Z,2.10
2022-09-17T12:56:16.885Z,2.28
2022-09-17T13:01:33.474Z,3.35
2022-09-17T13:06:54.815Z,2.85
2022-09-17T13:12:09.290Z,3.10
2022-09-17T13:17:41.675Z,2.35
2022-09-17T13:22:49.501Z,2.67
2022-09-17T13:28:11.459Z,2.58
2022-09-17T13:33:50.349Z,3.35
2022-09-17T13:38:55.118Z,3.42
2022-09-17T13:43:57.597Z,4.32
2022-09-17T13:49:14.827Z,2.50
2022-09-17T13:54:20.664Z,2.70
2022-09-17T13:59:28.650Z,2.47
2022-09-17T14:04:35.798Z,4.70
2022-09-17T14:09:56.622Z,3.05
2022-09-17T14:15:02.636Z,2.25
2022-09-17T14:20:06.150Z,2.15
2022-09-17T14:25:21.815Z,1.27
2022-09-17T14:30:29.760Z,1.85
2022-09-17T14:35:38.028Z,2.08
2022-09-17T14:40:45.387Z,2.25
2022-09-17T14:45:50.558Z,2.70
2022-09-17T14:50:54.763Z,2.80
2022-09-17T14:55:58.839Z,2.55
2022-09-17T15:01:00.999Z,2.35
2022-09-17T15:06:05.252Z,3.10
2022-09-17T15:11:14.270Z,2.60
2022-09-17T15:16:16.142Z,2.72
2022-09-17T15:21:36.447Z,3.05
2022-09-17T15:26:45.568Z,3.00
2022-09-17T15:31:47.449Z,2.60
2022-09-17T15:37:17.464Z,2.60
2022-09-17T15:42:29.290Z,3.80
2022-09-17T15:47:55.453Z,3.45
2022-09-17T15:53:09.521Z,3.25
2022-09-17T15:58:30.020Z,3.97
2022-09-17T16:04:03.046Z,4.03
2022-09-17T16:09:37.890Z,4.13
2022-09-17T16:14:46.144Z,3.55
2022-09-17T16:19:50.328Z,3.45
2022-09-17T16:24:53.156Z,4.28
2022-09-17T16:30:01.679Z,2.65
2022-09-17T16:35:07.212Z,2.70
2022-09-17T16:40:14.806Z,3.58
2022-09-17T16:45:17.715Z,3.15
2022-09-17T16:50:21.014Z,2.40
2022-09-17T16:55:27.615Z,2.88
2022-09-17T17:00:29.432Z,2.88
2022-09-17T17:05:40.615Z,3.20
2022-09-17T17:10:47.103Z,3.42
2022-09-17T17:15:52.577Z,3.30
2022-09-17T17:20:55.289Z,2.93
2022-09-17T17:26:04.351Z,2.83
2022-09-17T17:31:06.570Z,3.70
2022-09-17T17:36:11.434Z,3.25
2022-09-17T17:41:18.000Z,2.95
2022-09-17T17:46:19.820Z,2.70
2022-09-17T17:51:23.886Z,2.60
2022-09-17T17:56:26.082Z,2.72
2022-09-17T18:01:34.924Z,2.85
2022-09-17T18:06:36.821Z,2.30
2022-09-17T18:11:38.689Z,2.35
2022-09-17T18:16:40.919Z,1.75
2022-09-17T18:21:43.841Z,1.20
2022-09-17T18:26:47.435Z,1.60
2022-09-17T18:31:51.611Z,2.17
2022-09-17T18:36:53.430Z,2.60
2022-09-17T18:41:55.157Z,2.30
2022-09-17T18:46:59.253Z,2.33
2022-09-17T18:52:07.499Z,2.50
2022-09-17T18:57:12.327Z,2.35
2022-09-17T19:02:14.095Z,2.17
2022-09-17T19:07:19.375Z,2.35
2022-09-17T19:12:24.661Z,2.30
2022-09-17T19:17:29.551Z,2.95
2022-09-17T19:22:31.619Z,2.40
2022-09-17T19:27:34.090Z,2.65
2022-09-17T19:32:35.996Z,2.25
2022-09-17T19:37:37.868Z,3.00
2022-09-17T19:42:41.792Z,2.35
2022-09-17T19:47:43.629Z,3.40
2022-09-17T19:52:47.992Z,2.60
2022-09-17T19:57:50.975Z,2.65
2022-09-17T20:02:53.019Z,2.97
2022-09-17T20:07:55.016Z,3.08
2022-09-17T20:12:59.530Z,2.67
2022-09-17T20:18:02.590Z,2.70
2022-09-17T20:23:04.678Z,3.00
2022-09-17T20:28:06.509Z,2.90
2022-09-17T20:33:10.661Z,2.60
2022-09-17T20:43:42.235Z,1.88
2022-09-17T20:48:44.251Z,2.63
2022-09-17T20:53:51.266Z,2.30
2022-09-17T20:59:09.424Z,1.98
2022-09-17T21:04:21.899Z,2.20
2022-09-17T21:09:24.436Z,2.40
2022-09-17T21:14:28.723Z,1.52
2022-09-17T21:19:38.814Z,1.88
2022-09-17T21:24:43.019Z,2.00
2022-09-17T21:29:45.781Z,1.33
2022-09-17T21:34:54.722Z,1.90
2022-09-17T21:39:59.398Z,1.70
2022-09-17T21:45:01.508Z,2.50
2022-09-17T21:50:03.942Z,1.83
2022-09-17T21:55:09.533Z,1.75
2022-09-17T22:00:22.610Z,2.40
2022-09-17T22:05:32.804Z,2.20
2022-09-17T22:10:36.804Z,2.22
2022-09-17T22:15:38.654Z,2.47
2022-09-17T22:20:43.889Z,2.15
2022-09-17T22:25:50.400Z,2.08
2022-09-17T22:30:54.717Z,1.60
2022-09-17T22:36:02.845Z,1.92
2022-09-17T22:41:10.025Z,2.70
2022-09-17T22:46:16.291Z,2.70
2022-09-17T22:51:19.012Z,2.85
2022-09-17T22:56:23.347Z,2.78
2022-09-17T23:01:31.269Z,3.40
2022-09-17T23:06:35.513Z,3.27
2022-09-17T23:11:38.871Z,2.80
2022-09-17T23:16:43.081Z,2.90
2022-09-17T23:21:45.238Z,2.23
2022-09-17T23:26:47.100Z,2.93
2022-09-17T23:31:49.000Z,2.47
2022-09-17T23:36:53.205Z,1.90
2022-09-17T23:41:57.162Z,2.03
2022-09-17T23:47:03.731Z,2.70
2022-09-17T23:52:08.738Z,2.00
2022-09-17T23:57:13.856Z,3.17
